createdAt,value
2022-08-28T00:00:41.688Z,73.99
2022-08-28T00:03:10.910Z,74.38
2022-08-28T00:05:39.980Z,74.45
2022-08-28T00:08:08.750Z,74.56
2022-08-28T00:10:39.219Z,74.70
2022-08-28T00:13:08.040Z,74.79
2022-08-28T00:15:39.025Z,74.53
2022-08-28T00:18:07.572Z,74.51
2022-08-28T00:20:36.696Z,74.01
2022-08-28T00:23:05.872Z,74.17
2022-08-28T00:25:34.939Z,74.46
2022-08-28T00:28:08.493Z,74.93
2022-08-28T00:30:41.829Z,75.05
2022-08-28T00:33:12.786Z,74.77
2022-08-28T00:35:41.608Z,74.59
2022-08-28T00:38:10.267Z,74.80
2022-08-28T00:40:38.666Z,74.73
2022-08-28T00:43:09.411Z,74.44
2022-08-28T00:45:40.253Z,74.54
2022-08-28T00:48:08.516Z,73.71
2022-08-28T00:50:51.072Z,73.88
2022-08-28T00:53:19.670Z,74.08
2022-08-28T00:55:47.728Z,74.44
2022-08-28T00:58:16.127Z,74.89
2022-08-28T01:00:45.241Z,75.47
2022-08-28T01:03:13.060Z,75.68
2022-08-28T01:05:43.537Z,75.17
2022-08-28T01:08:11.361Z,74.83
2022-08-28T01:10:41.604Z,74.29
2022-08-28T01:13:09.437Z,74.34
2022-08-28T01:15:38.317Z,75.03
2022-08-28T01:18:10.203Z,75.68
2022-08-28T01:20:44.859Z,76.71
2022-08-28T01:23:21.823Z,76.70
2022-08-28T01:25:52.482Z,77.08
2022-08-28T01:28:20.330Z,77.27
2022-08-28T01:30:49.849Z,77.36
2022-08-28T01:33:19.361Z,77.29
2022-08-28T01:35:55.559Z,77.69
2022-08-28T01:38:27.030Z,77.60
2022-08-28T01:40:59.470Z,77.13
2022-08-28T01:43:28.818Z,76.27
2022-08-28T01:46:02.204Z,77.19
2022-08-28T01:48:32.014Z,76.28
2022-08-28T01:51:00.182Z,76.94
2022-08-28T01:53:32.678Z,77.56
2022-08-28T01:56:04.503Z,78.35
2022-08-28T01:58:37.899Z,79.11
2022-08-28T02:01:10.619Z,78.88
2022-08-28T02:03:38.411Z,78.49
2022-08-28T02:06:07.122Z,78.15
2022-08-28T02:08:34.923Z,77.76
2022-08-28T02:11:06.200Z,78.03
2022-08-28T02:13:35.034Z,77.74
2022-08-28T02:16:03.866Z,77.85
2022-08-28T02:18:31.623Z,77.18
2022-08-28T02:20:59.394Z,76.71
2022-08-28T02:23:27.266Z,76.55
2022-08-28T02:25:54.982Z,76.27
2022-08-28T02:28:24.043Z,75.85
2022-08-28T02:30:51.797Z,75.89
2022-08-28T02:33:19.683Z,75.95
2022-08-28T02:35:47.335Z,76.18
2022-08-28T02:38:15.295Z,75.88
2022-08-28T02:40:43.088Z,76.19
2022-08-28T02:43:10.912Z,76.64
2022-08-28T02:45:39.988Z,76.39
2022-08-28T02:48:14.652Z,76.52
2022-08-28T02:50:45.198Z,76.02
2022-08-28T02:53:13.322Z,76.28
2022-08-28T02:55:41.345Z,76.06
2022-08-28T02:58:09.632Z,76.01
2022-08-28T03:00:37.657Z,75.77
2022-08-28T03:03:06.807Z,75.34
2022-08-28T03:05:34.561Z,75.64
2022-08-28T03:08:02.259Z,76.22
2022-08-28T03:10:29.936Z,75.95
2022-08-28T03:12:57.632Z,75.86
2022-08-28T03:15:25.418Z,76.57
2022-08-28T03:17:53.093Z,76.57
2022-08-28T03:20:22.177Z,76.42
2022-08-28T03:23:07.512Z,77.48
2022-08-28T03:25:35.576Z,77.20
2022-08-28T03:28:03.533Z,77.79
2022-08-28T03:30:31.272Z,77.85
2022-08-28T03:32:59.041Z,79.11
2022-08-28T03:35:28.328Z,79.60
2022-08-28T03:37:56.062Z,78.57
2022-08-28T03:40:23.778Z,78.32
2022-08-28T03:42:53.348Z,79.40
2022-08-28T03:45:22.082Z,79.86
2022-08-28T03:47:50.858Z,81.11
2022-08-28T03:50:19.869Z,80.85
2022-08-28T03:52:49.186Z,80.58
2022-08-28T03:55:18.798Z,78.97
2022-08-28T03:57:46.801Z,78.20
2022-08-28T04:00:16.408Z,76.91
2022-08-28T04:02:46.100Z,76.16
2022-08-28T04:05:14.357Z,76.54
2022-08-28T04:07:42.062Z,76.48
2022-08-28T04:10:12.162Z,76.14
2022-08-28T04:12:39.935Z,76.23
2022-08-28T04:15:09.016Z,75.54
2022-08-28T04:17:39.583Z,76.24
2022-08-28T04:20:11.201Z,76.20
2022-08-28T04:22:39.558Z,76.28
2022-08-28T04:25:08.896Z,77.78
2022-08-28T04:27:37.930Z,76.97
2022-08-28T04:30:07.032Z,76.41
2022-08-28T04:32:38.346Z,76.52
2022-08-28T04:35:09.042Z,76.33
2022-08-28T04:37:37.268Z,76.31
2022-08-28T04:40:05.715Z,76.47
2022-08-28T04:42:33.540Z,76.60
2022-08-28T04:45:02.768Z,77.50
2022-08-28T04:47:30.976Z,77.66
2022-08-28T04:49:58.702Z,77.84
2022-08-28T04:52:26.446Z,78.42
2022-08-28T04:54:54.051Z,78.89
2022-08-28T04:57:21.788Z,78.16
2022-08-28T04:59:49.454Z,78.12
2022-08-28T05:02:18.538Z,77.49
2022-08-28T05:04:46.880Z,76.27
2022-08-28T05:07:14.606Z,76.37
2022-08-28T05:09:43.412Z,76.38
2022-08-28T05:12:17.034Z,76.46
2022-08-28T05:14:45.614Z,76.18
2022-08-28T05:17:15.095Z,76.49
2022-08-28T05:19:44.164Z,77.04
2022-08-28T05:22:12.047Z,76.67
2022-08-28T05:24:40.388Z,77.71
2022-08-28T05:27:08.686Z,78.07
2022-08-28T05:29:36.531Z,77.46
2022-08-28T05:32:05.549Z,76.99
2022-08-28T05:34:33.211Z,76.90
2022-08-28T05:37:02.258Z,76.59
2022-08-28T05:39:30.056Z,76.52
2022-08-28T05:41:57.692Z,76.90
2022-08-28T05:44:25.360Z,77.61
2022-08-28T05:46:53.077Z,78.16
2022-08-28T05:49:20.938Z,79.02
2022-08-28T05:51:49.970Z,79.02
2022-08-28T05:54:19.296Z,77.86
2022-08-28T05:56:47.297Z,77.35
2022-08-28T05:59:16.101Z,76.95
2022-08-28T06:01:46.491Z,77.61
2022-08-28T06:04:17.719Z,77.83
2022-08-28T06:06:46.766Z,77.76
2022-08-28T06:09:16.437Z,78.87
2022-08-28T06:11:46.445Z,78.36
2022-08-28T06:14:16.605Z,78.91
2022-08-28T06:16:48.321Z,79.14
2022-08-28T06:19:17.455Z,78.18
2022-08-28T06:21:46.860Z,78.81
2022-08-28T06:24:15.135Z,78.15
2022-08-28T06:26:42.834Z,78.41
2022-08-28T06:29:13.563Z,77.92
2022-08-28T06:31:41.300Z,77.73
2022-08-28T06:34:09.939Z,77.12
2022-08-28T06:36:40.294Z,76.83
2022-08-28T06:39:09.530Z,76.47
2022-08-28T06:41:40.987Z,77.55
2022-08-28T06:44:08.856Z,77.73
2022-08-28T06:46:38.059Z,77.73
2022-08-28T06:49:08.022Z,77.13
2022-08-28T06:51:36.631Z,77.10
2022-08-28T06:54:05.083Z,76.98
2022-08-28T06:56:33.649Z,77.34
2022-08-28T06:59:01.800Z,78.74
2022-08-28T07:01:32.974Z,79.43
2022-08-28T07:04:04.028Z,79.18
2022-08-28T07:06:34.120Z,79.53
2022-08-28T07:09:01.934Z,79.01
2022-08-28T07:11:31.388Z,78.86
2022-08-28T07:14:00.681Z,78.44
2022-08-28T07:16:30.608Z,78.25
2022-08-28T07:18:59.469Z,78.29
2022-08-28T07:21:28.527Z,78.22
2022-08-28T07:23:56.388Z,78.16
2022-08-28T07:26:26.133Z,78.04
2022-08-28T07:29:09.324Z,77.48
2022-08-28T07:31:40.814Z,77.28
2022-08-28T07:34:09.498Z,77.96
2022-08-28T07:36:39.338Z,78.23
2022-08-28T07:39:08.386Z,78.28
2022-08-28T07:41:39.328Z,78.03
2022-08-28T07:44:28.327Z,78.49
2022-08-28T07:46:57.110Z,78.14
2022-08-28T07:49:25.883Z,78.64
2022-08-28T07:51:54.985Z,78.52
2022-08-28T07:54:22.929Z,78.66
2022-08-28T07:56:51.103Z,79.23
2022-08-28T07:59:19.292Z,79.18
2022-08-28T08:01:50.653Z,79.08
2022-08-28T08:04:20.916Z,79.18
2022-08-28T08:06:48.947Z,79.20
2022-08-28T08:09:19.457Z,79.58
2022-08-28T08:11:48.151Z,79.40
2022-08-28T08:14:17.706Z,79.38
2022-08-28T08:16:48.403Z,79.56
2022-08-28T08:19:18.888Z,79.83
2022-08-28T08:21:53.136Z,79.21
2022-08-28T08:24:26.566Z,80.03
2022-08-28T08:26:59.675Z,79.74
2022-08-28T08:29:28.692Z,80.37
2022-08-28T08:31:58.036Z,79.62
2022-08-28T08:34:26.484Z,79.45
2022-08-28T08:36:54.298Z,79.04
2022-08-28T08:39:22.030Z,79.44
2022-08-28T08:41:54.710Z,79.16
2022-08-28T08:44:28.529Z,79.35
2022-08-28T08:47:14.069Z,79.45
2022-08-28T08:49:48.910Z,80.00
2022-08-28T08:52:35.951Z,79.92
2022-08-28T08:55:15.110Z,78.85
2022-08-28T08:57:49.173Z,78.97
2022-08-28T09:00:18.895Z,78.84
2022-08-28T09:02:54.276Z,79.24
2022-08-28T09:05:28.583Z,78.67
2022-08-28T09:07:57.952Z,79.87
2022-08-28T09:10:35.189Z,79.50
2022-08-28T09:13:13.163Z,80.20
2022-08-28T09:15:48.678Z,80.51
2022-08-28T09:18:22.255Z,79.70
2022-08-28T09:20:51.101Z,79.48
2022-08-28T09:23:18.830Z,79.57
2022-08-28T09:25:53.875Z,78.91
2022-08-28T09:28:26.542Z,79.44
2022-08-28T09:31:06.214Z,78.58
2022-08-28T09:33:42.123Z,79.02
2022-08-28T09:36:37.625Z,78.47
2022-08-28T09:39:12.959Z,78.93
2022-08-28T09:42:04.518Z,79.07
2022-08-28T09:44:34.001Z,79.58
2022-08-28T09:47:02.365Z,79.45
2022-08-28T09:49:31.436Z,78.98
2022-08-28T09:52:01.627Z,78.16
2022-08-28T09:54:33.853Z,78.21
2022-08-28T09:57:03.422Z,78.93
2022-08-28T09:59:32.987Z,79.57
2022-08-28T10:02:22.319Z,79.47
2022-08-28T10:05:01.259Z,79.32
2022-08-28T10:07:38.442Z,80.14
2022-08-28T10:10:21.336Z,79.87
2022-08-28T10:13:00.323Z,79.67
2022-08-28T10:15:34.594Z,80.54
2022-08-28T10:18:19.981Z,80.64
2022-08-28T10:20:58.614Z,79.91
2022-08-28T10:23:33.958Z,80.15
2022-08-28T10:26:17.505Z,80.28
2022-08-28T10:28:56.102Z,80.95
2022-08-28T10:31:36.212Z,81.39
2022-08-28T10:34:27.452Z,81.59
2022-08-28T10:37:03.670Z,80.70
2022-08-28T10:39:44.955Z,81.81
2022-08-28T10:42:13.503Z,81.65
2022-08-28T10:44:50.417Z,81.62
2022-08-28T10:47:22.818Z,81.45
2022-08-28T10:50:01.738Z,80.71
2022-08-28T10:52:34.289Z,81.06
2022-08-28T10:55:09.253Z,80.75
2022-08-28T10:57:42.624Z,80.66
2022-08-28T11:00:13.303Z,80.43
2022-08-28T11:02:48.949Z,80.51
2022-08-28T11:05:21.795Z,80.86
2022-08-28T11:07:55.297Z,80.76
2022-08-28T11:10:40.062Z,80.71
2022-08-28T11:13:10.197Z,80.37
2022-08-28T11:15:48.095Z,79.97
2022-08-28T11:18:41.463Z,80.31
2022-08-28T11:21:16.840Z,80.30
2022-08-28T11:23:50.007Z,79.86
2022-08-28T11:26:30.748Z,80.74
2022-08-28T11:29:00.334Z,80.59
2022-08-28T11:31:32.276Z,80.69
2022-08-28T11:34:02.693Z,80.21
2022-08-28T11:37:02.842Z,80.03
2022-08-28T11:39:30.837Z,79.82
2022-08-28T11:42:32.214Z,80.11
2022-08-28T11:45:00.612Z,78.34
2022-08-28T11:47:46.554Z,79.32
2022-08-28T11:50:21.635Z,79.71
2022-08-28T11:53:17.926Z,78.94
2022-08-28T11:56:08.732Z,78.44
2022-08-28T11:58:43.426Z,78.27
2022-08-28T12:01:14.203Z,76.87
2022-08-28T12:03:44.623Z,77.25
2022-08-28T12:06:14.369Z,76.39
2022-08-28T12:09:09.966Z,77.54
2022-08-28T12:12:11.278Z,77.21
2022-08-28T12:15:11.202Z,76.74
2022-08-28T12:17:51.966Z,76.26
2022-08-28T12:20:40.595Z,75.99
2022-08-28T12:23:51.166Z,75.76
2022-08-28T12:26:27.630Z,75.56
2022-08-28T12:28:58.014Z,74.77
2022-08-28T12:32:14.448Z,74.88
2022-08-28T12:34:46.930Z,74.30
2022-08-28T12:37:39.603Z,74.24
2022-08-28T12:40:22.034Z,74.60
2022-08-28T12:42:55.359Z,74.08
2022-08-28T12:45:27.699Z,74.38
2022-08-28T12:48:00.018Z,75.33
2022-08-28T12:50:32.174Z,74.77
2022-08-28T12:53:02.518Z,74.82
2022-08-28T12:55:31.216Z,73.71
2022-08-28T12:58:00.713Z,73.70
2022-08-28T13:00:34.840Z,73.81
2022-08-28T13:03:03.887Z,73.22
2022-08-28T13:05:34.401Z,73.72
2022-08-28T13:08:08.554Z,72.11
2022-08-28T13:10:39.359Z,72.22
2022-08-28T13:13:12.335Z,71.32
2022-08-28T13:15:57.919Z,71.83
2022-08-28T13:18:42.846Z,72.21
2022-08-28T13:21:15.861Z,71.82
2022-08-28T13:23:43.588Z,72.21
2022-08-28T13:26:12.598Z,72.24
2022-08-28T13:28:43.782Z,72.68
2022-08-28T13:31:23.959Z,73.12
2022-08-28T13:34:07.207Z,72.35
2022-08-28T13:36:45.464Z,72.96
2022-08-28T13:39:15.002Z,72.44
2022-08-28T13:41:45.108Z,72.77
2022-08-28T13:44:30.539Z,72.35
2022-08-28T13:46:59.669Z,72.86
2022-08-28T13:49:29.848Z,72.28
2022-08-28T13:51:59.213Z,72.40
2022-08-28T13:54:27.740Z,72.79
2022-08-28T13:56:58.783Z,73.22
2022-08-28T13:59:28.777Z,72.54
2022-08-28T14:02:16.703Z,72.70
2022-08-28T14:04:44.814Z,72.11
2022-08-28T14:07:15.193Z,71.31
2022-08-28T14:09:43.144Z,71.44
2022-08-28T14:12:12.043Z,71.38
2022-08-28T14:14:41.373Z,71.61
2022-08-28T14:17:09.993Z,70.90
2022-08-28T14:19:38.171Z,69.04
2022-08-28T14:22:06.096Z,67.74
2022-08-28T14:24:33.835Z,68.66
2022-08-28T14:27:02.564Z,69.37
2022-08-28T14:29:31.472Z,69.32
2022-08-28T14:32:01.827Z,67.74
2022-08-28T14:34:29.617Z,66.67
2022-08-28T14:36:57.477Z,66.92
2022-08-28T14:39:27.294Z,67.82
2022-08-28T14:41:55.881Z,67.45
2022-08-28T14:44:25.111Z,67.78
2022-08-28T14:46:56.077Z,68.26
2022-08-28T14:49:28.257Z,68.64
2022-08-28T14:51:57.049Z,68.36
2022-08-28T14:54:26.308Z,66.08
2022-08-28T14:56:55.132Z,66.43
2022-08-28T14:59:25.684Z,67.34
2022-08-28T15:01:55.294Z,66.63
2022-08-28T15:04:26.031Z,66.62
2022-08-28T15:06:59.159Z,67.44
2022-08-28T15:09:27.409Z,67.79
2022-08-28T15:11:55.404Z,68.37
2022-08-28T15:14:23.143Z,67.21
2022-08-28T15:16:50.937Z,66.84
2022-08-28T15:19:19.054Z,67.41
2022-08-28T15:21:49.492Z,67.79
2022-08-28T15:24:24.102Z,66.91
2022-08-28T15:26:52.117Z,66.84
2022-08-28T15:29:19.832Z,65.93
2022-08-28T15:31:49.995Z,65.44
2022-08-28T15:34:22.037Z,65.04
2022-08-28T15:36:54.702Z,65.68
2022-08-28T15:39:42.236Z,66.13
2022-08-28T15:42:11.392Z,65.30
2022-08-28T15:44:39.604Z,64.82
2022-08-28T15:47:07.815Z,64.86
2022-08-28T15:49:44.662Z,64.13
2022-08-28T15:52:16.781Z,63.17
2022-08-28T15:54:45.832Z,63.42
2022-08-28T15:57:13.543Z,63.42
2022-08-28T15:59:49.129Z,63.55
2022-08-28T16:02:18.971Z,63.32
2022-08-28T16:04:46.842Z,62.31
2022-08-28T16:07:14.606Z,62.01
2022-08-28T16:09:42.380Z,63.06
2022-08-28T16:12:11.532Z,63.15
2022-08-28T16:14:39.221Z,62.76
2022-08-28T16:17:10.690Z,61.90
2022-08-28T16:19:39.052Z,61.94
2022-08-28T16:22:06.908Z,62.62
2022-08-28T16:24:34.810Z,62.79
2022-08-28T16:27:02.727Z,63.04
2022-08-28T16:29:32.114Z,63.19
2022-08-28T16:31:59.832Z,63.04
2022-08-28T16:35:56.888Z,63.40
2022-08-28T16:37:19.569Z,63.95
2022-08-28T16:39:54.355Z,64.02
2022-08-28T16:42:22.118Z,64.11
2022-08-28T16:44:51.240Z,64.41
2022-08-28T16:47:18.954Z,63.93
2022-08-28T16:49:46.626Z,64.23
2022-08-28T16:52:14.307Z,64.56
2022-08-28T16:54:47.459Z,64.16
2022-08-28T16:57:16.684Z,63.89
2022-08-28T16:59:44.426Z,64.25
2022-08-28T17:02:13.603Z,63.91
2022-08-28T17:04:41.775Z,64.43
2022-08-28T17:07:09.550Z,64.38
2022-08-28T17:09:37.239Z,63.79
2022-08-28T17:12:05.105Z,64.45
2022-08-28T17:14:33.732Z,64.39
2022-08-28T17:17:01.654Z,64.08
2022-08-28T17:19:30.983Z,64.58
2022-08-28T17:22:16.119Z,64.97
2022-08-28T17:24:43.880Z,64.99
2022-08-28T17:27:14.417Z,64.99
2022-08-28T17:29:49.171Z,65.15
2022-08-28T17:32:16.874Z,65.70
2022-08-28T17:34:45.973Z,65.41
2022-08-28T17:37:13.727Z,66.21
2022-08-28T17:39:41.422Z,66.44
2022-08-28T17:42:11.183Z,66.28
2022-08-28T17:44:38.920Z,66.84
2022-08-28T17:47:06.945Z,67.34
2022-08-28T17:49:34.674Z,67.47
2022-08-28T17:52:04.203Z,67.32
2022-08-28T17:54:31.999Z,67.50
2022-08-28T17:57:00.078Z,67.90
2022-08-28T17:59:27.853Z,67.83
2022-08-28T18:01:55.820Z,68.45
2022-08-28T18:04:24.632Z,68.52
2022-08-28T18:06:54.079Z,68.60
2022-08-28T18:09:24.017Z,68.25
2022-08-28T18:11:52.184Z,68.53
2022-08-28T18:14:19.994Z,68.41
2022-08-28T18:16:48.273Z,68.10
2022-08-28T18:19:16.780Z,68.12
2022-08-28T18:24:25.383Z,68.10
2022-08-28T18:26:53.776Z,68.65
2022-08-28T18:29:20.253Z,68.40
2022-08-28T18:31:46.721Z,68.58
2022-08-28T18:34:13.601Z,68.97
2022-08-28T18:36:40.832Z,69.30
2022-08-28T18:39:07.624Z,69.18
2022-08-28T18:41:43.871Z,69.34
2022-08-28T18:51:53.054Z,68.91
2022-08-28T18:54:20.285Z,69.13
2022-08-28T18:56:49.106Z,69.46
2022-08-28T18:59:16.936Z,69.89
2022-08-28T19:01:43.367Z,69.81
2022-08-28T19:04:10.195Z,69.86
2022-08-28T19:06:36.641Z,69.80
2022-08-28T19:11:57.394Z,70.52
2022-08-28T19:14:23.706Z,70.64
2022-08-28T19:16:50.018Z,70.00
2022-08-28T19:19:16.358Z,70.44
2022-08-28T19:21:43.294Z,70.83
2022-08-28T19:24:09.631Z,70.79
2022-08-28T19:26:36.360Z,71.12
2022-08-28T19:29:04.429Z,71.10
2022-08-28T19:36:36.807Z,71.23
2022-08-28T19:39:04.802Z,71.18
2022-08-28T19:41:32.318Z,71.36
2022-08-28T19:43:59.156Z,71.08
2022-08-28T19:46:25.862Z,71.36
2022-08-28T19:48:53.194Z,71.93
2022-08-28T19:51:23.463Z,71.73
2022-08-28T20:00:28.583Z,70.95
2022-08-28T20:02:57.056Z,71.24
2022-08-28T20:05:24.442Z,72.01
2022-08-28T20:07:51.357Z,72.07
2022-08-28T20:10:19.049Z,73.02
2022-08-28T20:12:48.538Z,71.37
2022-08-28T20:15:16.699Z,70.82
2022-08-28T20:21:09.339Z,71.14
2022-08-28T20:23:35.664Z,71.33
2022-08-28T20:26:02.407Z,71.56
2022-08-28T20:28:30.921Z,72.10
2022-08-28T20:30:57.430Z,72.43
2022-08-28T20:33:23.812Z,72.41
2022-08-28T20:35:59.797Z,72.34
2022-08-28T20:43:29.592Z,72.83
2022-08-28T20:45:55.933Z,71.61
2022-08-28T20:48:22.317Z,70.61
2022-08-28T20:50:50.826Z,70.33
2022-08-28T20:53:36.813Z,70.12
2022-08-28T20:56:07.329Z,70.73
2022-08-28T20:58:34.864Z,71.37
2022-08-28T21:08:49.170Z,70.92
2022-08-28T21:11:15.983Z,70.36
2022-08-28T21:13:42.436Z,70.26
2022-08-28T21:16:09.064Z,71.14
2022-08-28T21:18:35.571Z,70.97
2022-08-28T21:21:03.747Z,71.58
2022-08-28T21:23:30.343Z,71.90
2022-08-28T21:25:57.889Z,71.73
2022-08-28T21:33:27.367Z,72.06
2022-08-28T21:35:53.650Z,72.35
2022-08-28T21:38:20.156Z,71.87
2022-08-28T21:40:46.583Z,71.04
2022-08-28T21:43:13.358Z,70.87
2022-08-28T21:45:39.715Z,70.78
2022-08-28T21:48:06.091Z,71.44
2022-08-28T21:50:35.104Z,71.33
2022-08-28T21:58:04.700Z,73.45
2022-08-28T22:00:31.054Z,74.42
2022-08-28T22:02:57.398Z,74.39
2022-08-28T22:05:23.952Z,74.09
2022-08-28T22:07:50.273Z,73.68
2022-08-28T22:10:17.065Z,73.34
2022-08-28T22:12:46.022Z,74.09
2022-08-28T22:15:15.095Z,74.39
2022-08-28T22:17:42.849Z,74.59
2022-08-28T22:20:11.195Z,74.68
2022-08-28T22:22:56.572Z,75.05
2022-08-28T22:25:24.480Z,75.10
2022-08-28T22:27:52.195Z,75.02
2022-08-28T22:30:21.594Z,75.15
2022-08-28T22:32:49.426Z,75.21
2022-08-28T22:35:17.230Z,74.84
2022-08-28T22:37:45.035Z,74.44
2022-08-28T22:40:13.880Z,73.98
2022-08-28T22:42:42.357Z,73.82
2022-08-28T22:45:11.094Z,73.37
2022-08-28T22:47:40.525Z,73.49
2022-08-28T22:50:09.258Z,73.19
2022-08-28T22:52:37.331Z,73.11
2022-08-28T22:55:06.673Z,72.97
2022-08-28T22:57:34.462Z,72.47
2022-08-28T23:00:04.002Z,72.49
2022-08-28T23:02:34.108Z,72.65
2022-08-28T23:05:03.340Z,72.32
2022-08-28T23:07:31.368Z,71.87
2022-08-28T23:09:59.008Z,72.02
2022-08-28T23:12:26.912Z,72.15
2022-08-28T23:14:54.637Z,72.28
2022-08-28T23:17:22.490Z,72.42
2022-08-28T23:24:53.317Z,72.48
2022-08-28T23:27:35.775Z,72.50
2022-08-28T23:30:05.124Z,72.37
2022-08-28T23:32:31.465Z,72.63
2022-08-28T23:35:01.882Z,72.50
2022-08-28T23:37:29.645Z,71.74
2022-08-28T23:40:00.857Z,72.17
2022-08-28T23:42:28.681Z,72.27
2022-08-28T23:44:56.946Z,72.40
2022-08-28T23:47:24.664Z,72.62
2022-08-28T23:49:52.369Z,72.91
2022-08-28T23:52:20.157Z,73.64
2022-08-28T23:54:49.869Z,74.45
2022-08-28T23:57:18.980Z,74.91
2022-08-28T23:59:47.308Z,74.54
